Känerkinden
Datum - Zeit
TemperaturTaupunktFeuchteSolar Wind aus Richtung WindböenLuftdruck (QFF)RegenRegenstärkeTrend
01.09.2026 - 00.00Uhr15.7 °C10.4 °C71 %0.0 W/m²0.0 km/hNord-NO0.0 km/h1020.0 hPa0.0 mm0.0 mm/hsonnig
01.09.2026 - 00.05Uhr15.4 °C10.4 °C72 %0.0 W/m²0.0 km/hNord-NO0.0 km/h1020.0 hPa0.0 mm0.0 mm/hwechselhaft
01.09.2026 - 00.10Uhr15.2 °C10.3 °C73 %0.0 W/m²0.0 km/hNord-NO0.0 km/h1019.9 hPa0.0 mm0.0 mm/hwechselhaft
01.09.2026 - 00.15Uhr15.2 °C10.2 °C72 %0.0 W/m²0.0 km/hNord-NO0.0 km/h1019.9 hPa0.0 mm0.0 mm/hwechselhaft
01.09.2026 - 00.20Uhr15.0 °C10.3 °C73 %0.0 W/m²0.0 km/hNord-NO0.0 km/h1019.9 hPa0.0 mm0.0 mm/hwechselhaft
01.09.2026 - 00.25Uhr14.8 °C10.2 °C74 %0.0 W/m²0.0 km/hNord-NO0.0 km/h1020.0 hPa0.0 mm0.0 mm/hwechselhaft
01.09.2026 - 00.30Uhr14.7 °C10.1 °C74 %0.0 W/m²0.0 km/hNord-NO0.0 km/h1020.0 hPa0.0 mm0.0 mm/hwechselhaft
01.09.2026 - 00.35Uhr14.9 °C10.1 °C73 %0.0 W/m²0.0 km/hNord-NO0.0 km/h1020.0 hPa0.0 mm0.0 mm/hwechselhaft
01.09.2026 - 00.40Uhr14.7 °C10.2 °C74 %0.0 W/m²0.0 km/hNord-NO0.0 km/h1020.0 hPa0.0 mm0.0 mm/hwechselhaft
01.09.2026 - 00.45Uhr14.6 °C10.1 °C74 %0.0 W/m²0.0 km/hNord-NO0.0 km/h1019.9 hPa0.0 mm0.0 mm/hwechselhaft
01.09.2026 - 00.50Uhr14.8 °C10.0 °C73 %0.0 W/m²0.0 km/hNord-NO0.0 km/h1019.9 hPa0.0 mm0.0 mm/hwechselhaft
01.09.2026 - 00.55Uhr14.8 °C10.0 °C73 %0.0 W/m²0.0 km/hNord-NO0.0 km/h1019.9 hPa0.0 mm0.0 mm/hwechselhaft
01.09.2026 - 01.00Uhr14.9 °C10.0 °C72 %0.0 W/m²0.0 km/hNord-NO0.0 km/h1019.9 hPa0.0 mm0.0 mm/hwechselhaft
01.09.2026 - 01.05Uhr14.9 °C9.9 °C72 %0.0 W/m²0.0 km/hNord-NO0.0 km/h1019.9 hPa0.0 mm0.0 mm/hwechselhaft
01.09.2026 - 01.10Uhr14.9 °C10.0 °C72 %0.0 W/m²0.0 km/hNord-NO0.0 km/h1019.9 hPa0.0 mm0.0 mm/hwechselhaft
01.09.2026 - 01.15Uhr14.8 °C10.0 °C73 %0.0 W/m²0.0 km/hNord-NO0.0 km/h1020.0 hPa0.0 mm0.0 mm/hwechselhaft
01.09.2026 - 01.20Uhr14.9 °C9.9 °C72 %0.0 W/m²0.0 km/hNord-NO0.0 km/h1020.0 hPa0.0 mm0.0 mm/hwechselhaft
01.09.2026 - 01.25Uhr14.8 °C10.0 °C73 %0.0 W/m²0.0 km/hNord-NO0.0 km/h1020.0 hPa0.0 mm0.0 mm/hwechselhaft
01.09.2026 - 01.30Uhr14.8 °C10.0 °C73 %0.0 W/m²0.0 km/hNord-NO0.0 km/h1019.9 hPa0.0 mm0.0 mm/hwechselhaft
01.09.2026 - 01.35Uhr14.7 °C10.0 °C74 %0.0 W/m²0.0 km/hNord-NO0.0 km/h1020.0 hPa0.0 mm0.0 mm/hwechselhaft
01.09.2026 - 01.40Uhr14.7 °C10.0 °C73 %0.0 W/m²0.0 km/hNord-NO0.0 km/h1020.0 hPa0.0 mm0.0 mm/hwechselhaft
01.09.2026 - 01.45Uhr14.7 °C9.9 °C73 %0.0 W/m²0.0 km/hNord-NO0.0 km/h1020.0 hPa0.0 mm0.0 mm/hwechselhaft
01.09.2026 - 01.50Uhr14.7 °C10.0 °C74 %0.0 W/m²0.0 km/hNord-NO0.0 km/h1020.0 hPa0.0 mm0.0 mm/hwechselhaft
01.09.2026 - 01.55Uhr14.6 °C10.0 °C74 %0.0 W/m²0.0 km/hNord-NO0.0 km/h1020.0 hPa0.0 mm0.0 mm/hwechselhaft
01.09.2026 - 02.00Uhr14.8 °C10.0 °C73 %0.0 W/m²0.0 km/hNord-NO0.0 km/h1019.9 hPa0.0 mm0.0 mm/hwechselhaft
01.09.2026 - 02.05Uhr14.9 °C10.0 °C73 %0.0 W/m²0.0 km/hOsten0.0 km/h1020.0 hPa0.0 mm0.0 mm/hwechselhaft
01.09.2026 - 02.10Uhr15.0 °C10.1 °C72 %0.0 W/m²0.0 km/hOsten0.0 km/h1020.0 hPa0.0 mm0.0 mm/hwechselhaft
01.09.2026 - 02.15Uhr15.2 °C10.1 °C72 %0.0 W/m²0.0 km/hOsten0.0 km/h1019.9 hPa0.0 mm0.0 mm/hwechselhaft
01.09.2026 - 02.20Uhr15.1 °C10.1 °C72 %0.0 W/m²0.0 km/hOsten0.0 km/h1019.8 hPa0.0 mm0.0 mm/hwechselhaft
01.09.2026 - 02.25Uhr15.0 °C10.0 °C72 %0.0 W/m²0.6 km/hOsten3.2 km/h1019.9 hPa0.0 mm0.0 mm/hwechselhaft
01.09.2026 - 02.30Uhr14.8 °C10.0 °C73 %0.0 W/m²0.0 km/hOsten0.0 km/h1019.9 hPa0.0 mm0.0 mm/hwechselhaft
01.09.2026 - 02.35Uhr14.7 °C10.0 °C74 %0.0 W/m²0.0 km/hOsten0.0 km/h1020.0 hPa0.0 mm0.0 mm/hwechselhaft
01.09.2026 - 02.40Uhr14.4 °C10.0 °C75 %0.0 W/m²0.0 km/hOsten0.0 km/h1019.9 hPa0.0 mm0.0 mm/hwechselhaft
01.09.2026 - 02.45Uhr14.3 °C9.9 °C75 %0.0 W/m²0.0 km/hOsten0.0 km/h1019.9 hPa0.0 mm0.0 mm/hwechselhaft
01.09.2026 - 02.50Uhr14.7 °C10.0 °C74 %0.0 W/m²0.0 km/hOsten0.0 km/h1019.9 hPa0.0 mm0.0 mm/hwechselhaft
01.09.2026 - 02.55Uhr15.0 °C10.0 °C72 %0.0 W/m²0.0 km/hOsten0.0 km/h1019.9 hPa0.0 mm0.0 mm/hwechselhaft
01.09.2026 - 03.00Uhr14.8 °C10.2 °C74 %0.0 W/m²0.0 km/hOsten0.0 km/h1020.0 hPa0.0 mm0.0 mm/hwechselhaft
01.09.2026 - 03.05Uhr14.6 °C10.5 °C76 %0.0 W/m²0.0 km/hOsten0.0 km/h1020.0 hPa0.0 mm0.0 mm/hwechselhaft
01.09.2026 - 03.10Uhr14.4 °C10.5 °C78 %0.0 W/m²0.0 km/hOsten0.0 km/h1020.0 hPa0.0 mm0.0 mm/hwechselhaft
01.09.2026 - 03.15Uhr14.3 °C10.3 °C77 %0.0 W/m²0.0 km/hOsten0.0 km/h1020.0 hPa0.0 mm0.0 mm/hwechselhaft
01.09.2026 - 03.20Uhr14.4 °C10.0 °C75 %0.0 W/m²0.0 km/hOsten0.0 km/h1020.0 hPa0.0 mm0.0 mm/hwechselhaft
01.09.2026 - 03.25Uhr14.6 °C10.1 °C74 %0.0 W/m²0.0 km/hOsten0.0 km/h1020.0 hPa0.0 mm0.0 mm/hwechselhaft
01.09.2026 - 03.30Uhr14.8 °C10.0 °C73 %0.0 W/m²0.0 km/hOsten0.0 km/h1020.0 hPa0.0 mm0.0 mm/hwechselhaft
01.09.2026 - 03.35Uhr14.9 °C10.2 °C73 %0.0 W/m²0.0 km/hOsten0.0 km/h1020.0 hPa0.0 mm0.0 mm/hwechselhaft
01.09.2026 - 03.40Uhr14.9 °C10.2 °C74 %0.0 W/m²0.0 km/hOsten0.0 km/h1020.0 hPa0.0 mm0.0 mm/hwechselhaft
01.09.2026 - 03.45Uhr14.7 °C10.3 °C75 %0.0 W/m²0.0 km/hOsten0.0 km/h1019.9 hPa0.0 mm0.0 mm/hwechselhaft
01.09.2026 - 03.50Uhr14.6 °C10.3 °C75 %0.0 W/m²0.0 km/hOsten0.0 km/h1019.9 hPa0.0 mm0.0 mm/hwechselhaft
01.09.2026 - 03.55Uhr14.6 °C10.2 °C75 %0.0 W/m²0.0 km/hOsten0.0 km/h1019.9 hPa0.0 mm0.0 mm/hwechselhaft
01.09.2026 - 04.00Uhr14.7 °C10.4 °C76 %0.0 W/m²0.0 km/hOsten0.0 km/h1019.9 hPa0.0 mm0.0 mm/hwechselhaft
01.09.2026 - 04.05Uhr14.5 °C10.4 °C77 %0.0 W/m²0.0 km/hOsten0.0 km/h1020.0 hPa0.0 mm0.0 mm/hwechselhaft
01.09.2026 - 04.10Uhr14.4 °C10.4 °C77 %0.0 W/m²0.0 km/hOsten0.0 km/h1020.0 hPa0.0 mm0.0 mm/hwechselhaft
01.09.2026 - 04.15Uhr14.4 °C10.3 °C77 %0.0 W/m²0.0 km/hOsten0.0 km/h1020.0 hPa0.0 mm0.0 mm/hwechselhaft
01.09.2026 - 04.20Uhr14.5 °C10.5 °C77 %0.0 W/m²0.1 km/hNord-NO1.4 km/h1020.0 hPa0.0 mm0.0 mm/hwechselhaft
01.09.2026 - 04.25Uhr14.3 °C10.5 °C78 %0.0 W/m²2.0 km/hNord-NO4.7 km/h1020.0 hPa0.0 mm0.0 mm/hwechselhaft
01.09.2026 - 04.30Uhr14.5 °C10.4 °C77 %0.0 W/m²0.2 km/hNord-NO1.4 km/h1020.0 hPa0.0 mm0.0 mm/hwechselhaft
01.09.2026 - 04.35Uhr14.3 °C10.2 °C76 %0.0 W/m²0.0 km/hNord-NO0.0 km/h1020.0 hPa0.0 mm0.0 mm/hwechselhaft
01.09.2026 - 04.40Uhr14.4 °C10.2 °C76 %0.0 W/m²0.6 km/hNord-NO1.4 km/h1020.0 hPa0.0 mm0.0 mm/hwechselhaft
01.09.2026 - 04.45Uhr14.2 °C10.0 °C76 %0.0 W/m²1.2 km/hNord-NO3.2 km/h1020.0 hPa0.0 mm0.0 mm/hwechselhaft
01.09.2026 - 04.50Uhr14.3 °C10.1 °C76 %0.0 W/m²0.7 km/hNord-NO1.4 km/h1020.0 hPa0.0 mm0.0 mm/hwechselhaft
01.09.2026 - 04.55Uhr14.3 °C10.2 °C76 %0.0 W/m²0.0 km/hNord-NO0.0 km/h1020.0 hPa0.0 mm0.0 mm/hwechselhaft
01.09.2026 - 05.00Uhr14.1 °C10.1 °C77 %0.0 W/m²0.0 km/hNord-NO0.0 km/h1020.0 hPa0.0 mm0.0 mm/hwechselhaft
01.09.2026 - 05.05Uhr14.0 °C10.0 °C77 %0.0 W/m²0.0 km/hNord-NO0.0 km/h1020.0 hPa0.0 mm0.0 mm/hwechselhaft
01.09.2026 - 05.10Uhr14.3 °C10.0 °C75 %0.0 W/m²0.0 km/hNord-NO0.0 km/h1020.0 hPa0.0 mm0.0 mm/hwechselhaft
01.09.2026 - 05.15Uhr14.3 °C10.1 °C76 %0.0 W/m²0.0 km/hNord-NO0.0 km/h1019.9 hPa0.0 mm0.0 mm/hwechselhaft
01.09.2026 - 05.20Uhr13.9 °C10.0 °C77 %0.0 W/m²0.0 km/hNord-NO0.0 km/h1019.9 hPa0.0 mm0.0 mm/hwechselhaft
01.09.2026 - 05.25Uhr13.6 °C10.1 °C79 %0.0 W/m²0.0 km/hNord-NO0.0 km/h1019.9 hPa0.0 mm0.0 mm/hwechselhaft
01.09.2026 - 05.30Uhr13.5 °C10.1 °C80 %0.0 W/m²0.0 km/hNord-NO0.0 km/h1019.9 hPa0.0 mm0.0 mm/hwechselhaft
01.09.2026 - 05.35Uhr13.7 °C10.0 °C78 %0.0 W/m²0.0 km/hNord-NO0.0 km/h1020.0 hPa0.0 mm0.0 mm/hwechselhaft
01.09.2026 - 05.40Uhr13.7 °C9.9 °C78 %0.0 W/m²0.0 km/hNord-NO0.0 km/h1020.0 hPa0.0 mm0.0 mm/hwechselhaft
01.09.2026 - 05.45Uhr13.7 °C10.0 °C79 %0.0 W/m²0.0 km/hNord-NO0.0 km/h1020.0 hPa0.0 mm0.0 mm/hwechselhaft
01.09.2026 - 05.50Uhr13.8 °C10.0 °C78 %0.0 W/m²0.0 km/hNord-NO0.0 km/h1020.1 hPa0.0 mm0.0 mm/hwechselhaft
01.09.2026 - 05.55Uhr13.7 °C9.9 °C78 %0.0 W/m²0.0 km/hNord-NO0.0 km/h1020.1 hPa0.0 mm0.0 mm/hwechselhaft
01.09.2026 - 06.00Uhr13.7 °C10.1 °C79 %0.0 W/m²0.0 km/hNord-NO0.0 km/h1020.0 hPa0.0 mm0.0 mm/hwechselhaft
01.09.2026 - 06.05Uhr13.8 °C10.2 °C79 %0.0 W/m²0.0 km/hNord-NO0.0 km/h1020.1 hPa0.0 mm0.0 mm/hwechselhaft
01.09.2026 - 06.10Uhr13.6 °C10.1 °C79 %0.0 W/m²0.0 km/hNord-NO0.0 km/h1020.0 hPa0.0 mm0.0 mm/hwechselhaft
01.09.2026 - 06.15Uhr13.3 °C10.0 °C81 %0.0 W/m²0.0 km/hNord-NO0.0 km/h1020.0 hPa0.0 mm0.0 mm/hwechselhaft
01.09.2026 - 06.20Uhr13.2 °C10.0 °C81 %0.0 W/m²0.0 km/hNord-NO0.0 km/h1020.0 hPa0.0 mm0.0 mm/hwechselhaft
01.09.2026 - 06.25Uhr13.2 °C10.0 °C81 %0.0 W/m²0.0 km/hNord-NO0.0 km/h1020.0 hPa0.0 mm0.0 mm/hwechselhaft
01.09.2026 - 06.30Uhr13.2 °C10.0 °C81 %0.0 W/m²0.0 km/hNord-NO0.0 km/h1020.0 hPa0.0 mm0.0 mm/hwechselhaft
01.09.2026 - 06.35Uhr13.2 °C10.0 °C81 %0.0 W/m²0.0 km/hNord-NO0.0 km/h1020.0 hPa0.0 mm0.0 mm/hwechselhaft
01.09.2026 - 06.40Uhr13.2 °C10.0 °C81 %0.0 W/m²0.0 km/hNord-NO0.0 km/h1020.1 hPa0.0 mm0.0 mm/hwechselhaft
01.09.2026 - 06.45Uhr13.3 °C10.1 °C81 %5.0 W/m²0.0 km/hNord-NO0.0 km/h1020.2 hPa0.0 mm0.0 mm/hwechselhaft
01.09.2026 - 06.50Uhr13.3 °C10.1 °C81 %7.0 W/m²0.0 km/hNord-NO0.0 km/h1020.2 hPa0.0 mm0.0 mm/hwechselhaft
01.09.2026 - 06.55Uhr13.4 °C10.2 °C81 %9.0 W/m²0.0 km/hNord-NO0.0 km/h1020.2 hPa0.0 mm0.0 mm/hwechselhaft
01.09.2026 - 07.00Uhr13.4 °C10.2 °C81 %11.0 W/m²0.0 km/hNord-NO0.0 km/h1020.3 hPa0.0 mm0.0 mm/hwechselhaft
01.09.2026 - 07.05Uhr13.4 °C10.2 °C81 %14.0 W/m²0.0 km/hNord-NO0.0 km/h1020.2 hPa0.0 mm0.0 mm/hwechselhaft
01.09.2026 - 07.10Uhr13.3 °C10.2 °C81 %19.0 W/m²0.0 km/hNord-NO0.0 km/h1020.2 hPa0.0 mm0.0 mm/hwechselhaft
01.09.2026 - 07.15Uhr13.4 °C10.4 °C82 %28.0 W/m²0.0 km/hNord-NO0.0 km/h1020.1 hPa0.0 mm0.0 mm/hwechselhaft
01.09.2026 - 07.20Uhr13.6 °C10.6 °C82 %39.0 W/m²2.9 km/hNord-NO4.7 km/h1020.1 hPa0.0 mm0.0 mm/hwechselhaft
01.09.2026 - 07.25Uhr13.7 °C10.7 °C82 %42.0 W/m²1.8 km/hOst-NO3.2 km/h1020.2 hPa0.0 mm0.0 mm/hwechselhaft
01.09.2026 - 07.30Uhr13.8 °C10.8 °C82 %58.0 W/m²1.6 km/hOst-NO3.2 km/h1020.2 hPa0.0 mm0.0 mm/hwechselhaft
01.09.2026 - 07.35Uhr13.9 °C10.9 °C82 %63.0 W/m²1.7 km/hOst-NO4.7 km/h1020.2 hPa0.0 mm0.0 mm/hwechselhaft
01.09.2026 - 07.40Uhr14.0 °C11.0 °C82 %77.0 W/m²1.8 km/hOst-NO4.7 km/h1020.2 hPa0.0 mm0.0 mm/hwechselhaft
01.09.2026 - 07.45Uhr14.2 °C11.1 °C81 %91.0 W/m²1.4 km/hOst-NO3.2 km/h1020.3 hPa0.0 mm0.0 mm/hwechselhaft
01.09.2026 - 07.50Uhr14.4 °C11.2 °C81 %107.0 W/m²0.6 km/hOst-NO1.4 km/h1020.3 hPa0.0 mm0.0 mm/hwechselhaft
01.09.2026 - 07.55Uhr14.6 °C11.3 °C80 %121.0 W/m²0.0 km/hOst-NO0.0 km/h1020.3 hPa0.0 mm0.0 mm/hwechselhaft
01.09.2026 - 08.00Uhr14.8 °C11.4 °C80 %141.0 W/m²0.0 km/hOst-NO0.0 km/h1020.4 hPa0.0 mm0.0 mm/hwechselhaft
01.09.2026 - 08.05Uhr15.0 °C11.8 °C81 %142.0 W/m²0.0 km/hOst-NO0.0 km/h1020.4 hPa0.0 mm0.0 mm/hwechselhaft
01.09.2026 - 08.10Uhr15.4 °C11.8 °C79 %144.0 W/m²1.6 km/hOst-NO3.2 km/h1020.4 hPa0.0 mm0.0 mm/hwechselhaft
01.09.2026 - 08.15Uhr15.8 °C11.9 °C78 %163.0 W/m²1.8 km/hOst-NO3.2 km/h1020.4 hPa0.0 mm0.0 mm/hwechselhaft
01.09.2026 - 08.20Uhr16.0 °C12.0 °C77 %200.0 W/m²2.0 km/hOst-NO3.2 km/h1020.4 hPa0.0 mm0.0 mm/hwechselhaft
01.09.2026 - 08.25Uhr16.2 °C12.0 °C76 %223.0 W/m²1.3 km/hOst-NO3.2 km/h1020.4 hPa0.0 mm0.0 mm/hwechselhaft
01.09.2026 - 08.30Uhr16.3 °C12.0 °C76 %237.0 W/m²0.0 km/hOst-NO0.0 km/h1020.4 hPa0.0 mm0.0 mm/hwechselhaft
01.09.2026 - 08.35Uhr16.5 °C12.1 °C75 %253.0 W/m²0.0 km/hOst-NO0.0 km/h1020.4 hPa0.0 mm0.0 mm/hwechselhaft
01.09.2026 - 08.40Uhr16.6 °C12.1 °C75 %267.0 W/m²0.0 km/hOst-NO0.0 km/h1020.5 hPa0.0 mm0.0 mm/hwechselhaft
01.09.2026 - 08.45Uhr16.8 °C12.2 °C75 %279.0 W/m²0.9 km/hOst-NO3.2 km/h1020.4 hPa0.0 mm0.0 mm/hwechselhaft
01.09.2026 - 08.50Uhr17.0 °C12.1 °C73 %294.0 W/m²0.5 km/hOst-NO3.2 km/h1020.5 hPa0.0 mm0.0 mm/hwechselhaft
01.09.2026 - 08.55Uhr17.3 °C12.4 °C73 %304.0 W/m²2.4 km/hWest-NW6.5 km/h1020.5 hPa0.0 mm0.0 mm/hwechselhaft
01.09.2026 - 09.00Uhr17.4 °C12.4 °C72 %320.0 W/m²4.3 km/hWest-NW6.5 km/h1020.5 hPa0.0 mm0.0 mm/hwechselhaft
01.09.2026 - 09.05Uhr17.5 °C12.5 °C72 %336.0 W/m²5.2 km/hNordwesten11.2 km/h1020.5 hPa0.0 mm0.0 mm/hwechselhaft
01.09.2026 - 09.10Uhr17.6 °C12.5 °C72 %352.0 W/m²6.4 km/hNordwesten9.7 km/h1020.5 hPa0.0 mm0.0 mm/hwechselhaft
01.09.2026 - 09.15Uhr17.7 °C12.4 °C71 %362.0 W/m²5.9 km/hNordwesten9.7 km/h1020.5 hPa0.0 mm0.0 mm/hwechselhaft
01.09.2026 - 09.20Uhr17.7 °C12.4 °C71 %376.0 W/m²6.1 km/hWest-NW7.9 km/h1020.5 hPa0.0 mm0.0 mm/hwechselhaft
01.09.2026 - 09.25Uhr17.8 °C12.5 °C71 %392.0 W/m²5.5 km/hWest-NW9.7 km/h1020.5 hPa0.0 mm0.0 mm/hwechselhaft
01.09.2026 - 09.30Uhr17.9 °C12.4 °C70 %406.0 W/m²5.4 km/hNordwesten9.7 km/h1020.5 hPa0.0 mm0.0 mm/hwechselhaft
01.09.2026 - 09.35Uhr18.0 °C12.6 °C70 %420.0 W/m²6.2 km/hNordwesten11.2 km/h1020.5 hPa0.0 mm0.0 mm/hwechselhaft
01.09.2026 - 09.40Uhr18.1 °C12.5 °C70 %427.0 W/m²5.7 km/hNordwesten11.2 km/h1020.6 hPa0.0 mm0.0 mm/hwechselhaft
01.09.2026 - 09.45Uhr18.2 °C12.6 °C70 %427.0 W/m²6.5 km/hNordwesten11.2 km/h1020.6 hPa0.0 mm0.0 mm/hwechselhaft
01.09.2026 - 09.50Uhr18.4 °C12.6 °C69 %422.0 W/m²7.5 km/hWesten11.2 km/h1020.6 hPa0.0 mm0.0 mm/hwechselhaft
01.09.2026 - 09.55Uhr18.5 °C12.7 °C69 %417.0 W/m²6.3 km/hWest-NW9.7 km/h1020.7 hPa0.0 mm0.0 mm/hwechselhaft
01.09.2026 - 10.00Uhr18.5 °C12.7 °C69 %406.0 W/m²5.3 km/hNordwesten7.9 km/h1020.7 hPa0.0 mm0.0 mm/hwechselhaft
01.09.2026 - 10.05Uhr18.7 °C12.8 °C68 %397.0 W/m²6.6 km/hWest-NW11.2 km/h1020.7 hPa0.0 mm0.0 mm/hwechselhaft
01.09.2026 - 10.10Uhr18.8 °C12.8 °C68 %388.0 W/m²6.1 km/hWest-SW9.7 km/h1020.8 hPa0.0 mm0.0 mm/hwechselhaft
01.09.2026 - 10.15Uhr18.9 °C12.8 °C68 %376.0 W/m²4.1 km/hWesten9.7 km/h1020.8 hPa0.0 mm0.0 mm/hwechselhaft
01.09.2026 - 10.20Uhr18.8 °C12.9 °C68 %427.0 W/m²2.0 km/hSüdosten6.5 km/h1020.7 hPa0.0 mm0.0 mm/hwechselhaft
01.09.2026 - 10.25Uhr19.1 °C13.0 °C68 %476.0 W/m²4.5 km/hWest-NW7.9 km/h1020.8 hPa0.0 mm0.0 mm/hwechselhaft
01.09.2026 - 10.30Uhr19.1 °C13.0 °C68 %515.0 W/m²6.1 km/hNordwesten11.2 km/h1020.8 hPa0.0 mm0.0 mm/hwechselhaft
01.09.2026 - 10.35Uhr19.0 °C12.8 °C67 %570.0 W/m²4.7 km/hNordwesten9.7 km/h1020.9 hPa0.0 mm0.0 mm/hwechselhaft
01.09.2026 - 10.40Uhr19.0 °C12.8 °C67 %591.0 W/m²6.3 km/hNord-NW13.0 km/h1020.8 hPa0.0 mm0.0 mm/hwechselhaft
01.09.2026 - 10.45Uhr19.3 °C12.9 °C67 %605.0 W/m²8.4 km/hNordwesten14.4 km/h1020.8 hPa0.0 mm0.0 mm/hwechselhaft
01.09.2026 - 10.50Uhr19.5 °C13.0 °C66 %617.0 W/m²8.3 km/hNordwesten13.0 km/h1020.9 hPa0.0 mm0.0 mm/hwechselhaft
01.09.2026 - 10.55Uhr19.8 °C13.0 °C65 %631.0 W/m²5.7 km/hNordwesten9.7 km/h1020.8 hPa0.0 mm0.0 mm/hwechselhaft
01.09.2026 - 11.00Uhr19.7 °C13.0 °C65 %631.0 W/m²3.8 km/hNorden7.9 km/h1020.7 hPa0.0 mm0.0 mm/hwechselhaft
01.09.2026 - 11.05Uhr19.8 °C12.9 °C64 %670.0 W/m²7.5 km/hNorden11.2 km/h1020.7 hPa0.0 mm0.0 mm/hwechselhaft
01.09.2026 - 11.10Uhr19.5 °C12.5 °C64 %613.0 W/m²2.4 km/hOst-SO6.5 km/h1020.7 hPa0.0 mm0.0 mm/hwechselhaft
01.09.2026 - 11.15Uhr19.8 °C12.8 °C64 %707.0 W/m²6.6 km/hNordwesten13.0 km/h1020.8 hPa0.0 mm0.0 mm/hwechselhaft
01.09.2026 - 11.20Uhr20.1 °C12.7 °C62 %710.0 W/m²7.1 km/hNordwesten13.0 km/h1020.8 hPa0.0 mm0.0 mm/hwechselhaft
01.09.2026 - 11.25Uhr20.2 °C12.3 °C61 %243.0 W/m²5.9 km/hWesten9.7 km/h1020.8 hPa0.0 mm0.0 mm/hwechselhaft
01.09.2026 - 11.30Uhr20.1 °C12.5 °C62 %302.0 W/m²8.6 km/hWest-NW14.4 km/h1020.8 hPa0.0 mm0.0 mm/hwechselhaft
01.09.2026 - 11.35Uhr20.3 °C12.7 °C62 %879.0 W/m²8.6 km/hWest-NW14.4 km/h1020.8 hPa0.0 mm0.0 mm/hwechselhaft
01.09.2026 - 11.40Uhr20.5 °C12.8 °C62 %889.0 W/m²7.0 km/hWest-NW11.2 km/h1020.8 hPa0.0 mm0.0 mm/hwechselhaft
01.09.2026 - 11.45Uhr20.3 °C12.7 °C62 %912.0 W/m²5.6 km/hNordwesten13.0 km/h1020.8 hPa0.0 mm0.0 mm/hwechselhaft
01.09.2026 - 11.50Uhr20.8 °C12.9 °C61 %870.0 W/m²10.8 km/hNordwesten17.6 km/h1020.7 hPa0.0 mm0.0 mm/hwechselhaft
01.09.2026 - 11.55Uhr20.9 °C12.7 °C59 %174.0 W/m²10.1 km/hNordwesten16.2 km/h1020.7 hPa0.0 mm0.0 mm/hwechselhaft
01.09.2026 - 12.00Uhr20.5 °C12.4 °C59 %958.0 W/m²7.3 km/hWesten11.2 km/h1020.7 hPa0.0 mm0.0 mm/hwechselhaft
01.09.2026 - 12.05Uhr20.5 °C12.4 °C60 %652.0 W/m²7.2 km/hNordwesten13.0 km/h1020.7 hPa0.0 mm0.0 mm/hwechselhaft
01.09.2026 - 12.10Uhr20.5 °C12.5 °C60 %345.0 W/m²9.9 km/hWest-NW16.2 km/h1020.6 hPa0.0 mm0.0 mm/hwechselhaft
01.09.2026 - 12.15Uhr20.6 °C12.6 °C60 %397.0 W/m²10.3 km/hNordwesten16.2 km/h1020.6 hPa0.0 mm0.0 mm/hwechselhaft
01.09.2026 - 12.20Uhr20.5 °C12.3 °C59 %253.0 W/m²10.7 km/hNordwesten14.4 km/h1020.5 hPa0.0 mm0.0 mm/hwechselhaft
01.09.2026 - 12.25Uhr20.2 °C12.0 °C59 %756.0 W/m²4.5 km/hNorden7.9 km/h1020.5 hPa0.0 mm0.0 mm/hwechselhaft
01.09.2026 - 12.30Uhr20.4 °C12.3 °C60 %796.0 W/m²6.3 km/hNorden11.2 km/h1020.5 hPa0.0 mm0.0 mm/hwechselhaft
01.09.2026 - 12.35Uhr20.7 °C12.5 °C60 %796.0 W/m²3.8 km/hNordosten9.7 km/h1020.4 hPa0.0 mm0.0 mm/hwechselhaft
01.09.2026 - 12.40Uhr20.9 °C12.4 °C58 %810.0 W/m²1.4 km/hSüdosten3.2 km/h1020.4 hPa0.0 mm0.0 mm/hwechselhaft
01.09.2026 - 12.45Uhr21.4 °C12.9 °C58 %893.0 W/m²4.7 km/hOst-NO9.7 km/h1020.3 hPa0.0 mm0.0 mm/hwechselhaft
01.09.2026 - 12.50Uhr21.8 °C12.5 °C56 %919.0 W/m²4.1 km/hOst-NO11.2 km/h1020.3 hPa0.0 mm0.0 mm/hwechselhaft
01.09.2026 - 12.55Uhr21.8 °C12.5 °C55 %944.0 W/m²6.3 km/hNorden11.2 km/h1020.3 hPa0.0 mm0.0 mm/hwechselhaft
01.09.2026 - 13.00Uhr21.9 °C12.3 °C55 %923.0 W/m²11.7 km/hNordwesten16.2 km/h1020.2 hPa0.0 mm0.0 mm/hwechselhaft
01.09.2026 - 13.05Uhr21.4 °C12.0 °C55 %253.0 W/m²10.4 km/hNordwesten14.4 km/h1020.2 hPa0.0 mm0.0 mm/hsonnig
01.09.2026 - 13.10Uhr21.3 °C11.9 °C55 %566.0 W/m²6.3 km/hWesten11.2 km/h1020.3 hPa0.0 mm0.0 mm/hsonnig
01.09.2026 - 13.15Uhr21.3 °C11.8 °C55 %362.0 W/m²5.7 km/hNordwesten9.7 km/h1020.2 hPa0.0 mm0.0 mm/hsonnig
01.09.2026 - 13.20Uhr21.4 °C12.2 °C56 %947.0 W/m²5.1 km/hNordwesten7.9 km/h1020.2 hPa0.0 mm0.0 mm/hsonnig
01.09.2026 - 13.25Uhr22.0 °C12.4 °C54 %977.0 W/m²7.3 km/hSüdwesten14.4 km/h1020.2 hPa0.0 mm0.0 mm/hsonnig
01.09.2026 - 13.30Uhr22.2 °C12.2 °C53 %986.0 W/m²11.7 km/hNordwesten19.4 km/h1020.2 hPa0.0 mm0.0 mm/hsonnig
01.09.2026 - 13.35Uhr22.1 °C12.0 °C53 %960.0 W/m²11.4 km/hNordwesten17.6 km/h1020.2 hPa0.0 mm0.0 mm/hsonnig
01.09.2026 - 13.40Uhr22.3 °C12.4 °C53 %879.0 W/m²11.5 km/hNorden16.2 km/h1020.1 hPa0.0 mm0.0 mm/hsonnig
01.09.2026 - 13.45Uhr22.2 °C12.3 °C53 %824.0 W/m²8.7 km/hNorden14.4 km/h1020.1 hPa0.0 mm0.0 mm/hsonnig
01.09.2026 - 13.50Uhr21.8 °C11.8 °C53 %800.0 W/m²8.2 km/hNorden16.2 km/h1020.1 hPa0.0 mm0.0 mm/hsonnig
01.09.2026 - 13.55Uhr21.9 °C11.9 °C53 %786.0 W/m²5.9 km/hNordwesten11.2 km/h1020.0 hPa0.0 mm0.0 mm/hsonnig
01.09.2026 - 14.00Uhr22.3 °C12.3 °C53 %791.0 W/m²5.6 km/hWest-SW9.7 km/h1020.0 hPa0.0 mm0.0 mm/hsonnig
01.09.2026 - 14.05Uhr22.6 °C11.9 °C51 %830.0 W/m²7.3 km/hSüdwesten13.0 km/h1020.0 hPa0.0 mm0.0 mm/hwechselhaft
01.09.2026 - 14.10Uhr22.5 °C11.8 °C51 %798.0 W/m²4.5 km/hWesten9.7 km/h1019.9 hPa0.0 mm0.0 mm/hwechselhaft
01.09.2026 - 14.15Uhr22.3 °C12.0 °C52 %234.0 W/m²11.7 km/hWest-SW17.6 km/h1019.9 hPa0.0 mm0.0 mm/hwechselhaft
01.09.2026 - 14.20Uhr22.4 °C12.0 °C52 %896.0 W/m²9.4 km/hWest-NW17.6 km/h1019.8 hPa0.0 mm0.0 mm/hwechselhaft
01.09.2026 - 14.25Uhr22.2 °C11.7 °C51 %888.0 W/m²4.3 km/hWest-NW11.2 km/h1019.9 hPa0.0 mm0.0 mm/hwechselhaft
01.09.2026 - 14.30Uhr22.5 °C12.0 °C52 %874.0 W/m²9.6 km/hWesten16.2 km/h1019.9 hPa0.0 mm0.0 mm/hwechselhaft
01.09.2026 - 14.35Uhr22.4 °C12.0 °C52 %904.0 W/m²10.0 km/hNordwesten17.6 km/h1019.9 hPa0.0 mm0.0 mm/hwechselhaft
01.09.2026 - 14.40Uhr22.7 °C12.4 °C52 %893.0 W/m²13.1 km/hWest-NW20.9 km/h1019.8 hPa0.0 mm0.0 mm/hwechselhaft
01.09.2026 - 14.45Uhr22.8 °C12.2 °C51 %816.0 W/m²11.4 km/hNordwesten20.9 km/h1019.8 hPa0.0 mm0.0 mm/hwechselhaft
01.09.2026 - 14.50Uhr22.6 °C11.8 °C51 %763.0 W/m²8.0 km/hNorden17.6 km/h1019.8 hPa0.0 mm0.0 mm/hwechselhaft
01.09.2026 - 14.55Uhr22.6 °C12.4 °C53 %881.0 W/m²6.0 km/hNordosten11.2 km/h1019.7 hPa0.0 mm0.0 mm/hwechselhaft
01.09.2026 - 15.00Uhr22.7 °C11.8 °C50 %881.0 W/m²5.4 km/hNordwesten11.2 km/h1019.7 hPa0.0 mm0.0 mm/hwechselhaft
01.09.2026 - 15.05Uhr22.5 °C11.8 °C51 %763.0 W/m²7.4 km/hWest-SW14.4 km/h1019.6 hPa0.0 mm0.0 mm/hwechselhaft
01.09.2026 - 15.10Uhr22.7 °C11.9 °C51 %765.0 W/m²9.4 km/hWest-SW13.0 km/h1019.5 hPa0.0 mm0.0 mm/hwechselhaft